Latest Weather Observations for Beerburrum

IDQ60901

Issued at 8:15 pm EST Tuesday 23 September 2014 (issued every 10 minutes, with the page automatically refreshed every 10 minutes)

About weather observations | Map of Brisbane area stations | Latest observations for Brisbane area | Other Formats
Station Details ID: 040284 Name: BEERBURRUM FOREST STATION Lat: -26.96 Lon: 152.96 Height: 48.0 m
Data from the previous 72 hours. | See also: Recent months at Beerburrum
Date/Time
EST
Tmp

°C
App
Tmp
°C
Dew
Point
°C
Rel
Hum
%
Delta-T

°C
Wind Press
QNH
hPa
Press
MSL
hPa
Rain
since
9 am
mm
Dir
 
Spd
km/h
Gust
km/h
Spd
kts
Gust
kts
23/08:00pm 16.5 17.6 13.4 82 1.7 CALM 0 0 0 0 - - 0.0
23/07:30pm 16.6 17.5 12.9 79 2.1 CALM 0 0 0 0 - - 0.0
23/07:00pm 16.6 17.5 12.8 78 2.1 CALM 0 0 0 0 - - 0.0
23/06:30pm 17.3 18.2 13.0 76 2.4 CALM 0 0 0 0 - - 0.0
23/06:00pm 18.3 18.8 12.7 70 3.1 E 2 7 1 4 - - 0.0
23/05:30pm 18.7 19.5 12.7 68 3.4 CALM 0 0 0 0 - - 0.0
23/05:00pm 19.7 18.8 11.2 58 4.7 E 7 11 4 6 - - 0.0
23/04:30pm 19.9 18.8 9.8 52 5.4 ESE 6 13 3 7 - - 0.0
23/04:00pm 21.9 20.6 10.1 47 6.4 E 7 17 4 9 - - 0.0
23/03:30pm 21.8 19.3 8.3 42 7.1 E 11 17 6 9 - - 0.0
23/03:00pm 21.8 19.8 8.7 43 6.9 SE 9 17 5 9 - - 0.0
23/02:30pm 21.1 19.9 10.3 50 5.9 SE 7 9 4 5 - - 0.0
23/02:00pm 22.2 20.0 8.0 40 7.5 SE 9 24 5 13 - - 0.0
23/01:30pm 22.6 20.2 8.7 41 7.4 SSE 11 20 6 11 - - 0.0
23/01:00pm 22.2 19.8 8.7 42 7.2 SE 11 22 6 12 - - 0.0
23/12:30pm 22.4 20.4 10.2 46 6.7 ESE 11 19 6 10 - - 0.0
23/12:00pm 22.5 20.5 10.3 46 6.7 E 11 26 6 14 - - 0.0
23/11:30am 22.5 20.5 10.3 46 6.7 E 11 20 6 11 - - 0.0
23/11:00am 22.5 20.1 10.0 45 6.8 ESE 13 22 7 12 - - 0.0
23/10:30am 21.7 19.6 9.6 46 6.5 ESE 11 20 6 11 - - 0.0
23/10:00am 22.3 20.7 11.4 50 6.1 SE 11 20 6 11 - - 0.0
23/09:30am 21.3 19.6 11.3 53 5.5 ESE 11 19 6 10 - - 0.0
23/09:00am 20.9 19.1 10.7 52 5.6 ESE 11 24 6 13 - - 8.8
23/08:30am 20.3 19.1 11.5 57 4.9 ESE 9 20 5 11 - - 8.8
23/08:00am 18.6 19.4 14.7 78 2.3 WSW 4 11 2 6 - - 8.8
23/07:30am 15.9 16.2 14.4 91 0.9 SSW 6 7 3 4 - - 8.8
23/07:00am 15.2 15.4 14.1 93 0.6 SW 6 7 3 4 - - 8.8
23/06:30am 14.7 15.1 13.6 93 0.6 SW 4 7 2 4 - - 8.8
23/06:00am 14.5 14.4 13.4 93 0.6 SW 6 7 3 4 - - 8.6
23/05:30am 14.5 14.4 13.4 93 0.6 SW 6 7 3 4 - - 8.6
23/05:00am 14.6 14.6 13.5 93 0.6 SW 6 7 3 4 - - 8.6
23/04:30am 14.7 14.7 13.6 93 0.6 SSW 6 7 3 4 - - 8.6
23/04:00am 14.8 14.8 13.7 93 0.6 SW 6 7 3 4 - - 8.6
23/03:30am 14.8 14.8 13.7 93 0.6 SW 6 7 3 4 - - 8.4
23/03:00am 15.0 15.1 13.9 93 0.6 SW 6 9 3 5 - - 8.4
23/02:30am 15.2 16.1 14.1 93 0.6 SW 2 7 1 4 - - 8.0
23/02:00am 15.3 15.9 14.2 93 0.6 SSW 4 9 2 5 - - 7.6
23/01:30am 15.3 15.5 14.2 93 0.6 SSW 6 9 3 5 - - 6.4
23/01:00am 15.4 15.4 14.3 93 0.6 S 7 13 4 7 - - 6.2
23/12:30am 15.4 15.6 14.3 93 0.6 SW 6 9 3 5 - - 1.8
23/12:00am 15.5 15.8 14.4 93 0.6 SW 6 15 3 8 - - 1.6
 
Date/Time
EST
Tmp

°C
App
Tmp
°C
Dew
Point
°C
Rel
Hum
%
Delta-T

°C
Wind Press
QNH
hPa
Press
MSL
hPa
Rain
since
9 am
mm
Dir
 
Spd
km/h
Gust
km/h
Spd
kts
Gust
kts
22/11:30pm 15.5 15.7 14.2 92 0.7 SW 6 7 3 4 - - 1.6
22/11:00pm 15.6 15.8 14.1 91 0.9 SSW 6 13 3 7 - - 1.2
22/10:30pm 15.8 16.0 14.3 91 0.9 SSW 6 7 3 4 - - 1.2
22/10:00pm 15.9 16.0 13.9 88 1.1 SSW 6 13 3 7 - - 1.0
22/09:30pm 16.4 16.2 13.5 83 1.6 S 7 13 4 7 - - 1.0
22/09:00pm 17.2 16.3 13.7 80 2.0 S 11 20 6 11 - - 1.0
22/08:30pm 16.3 16.2 13.2 82 1.7 S 6 11 3 6 - - 1.0
22/08:00pm 16.2 16.7 12.9 81 1.8 S 2 9 1 5 - - 1.0
22/07:30pm 16.4 16.8 12.6 78 2.1 SSW 2 6 1 3 - - 1.0
22/07:00pm 16.7 16.4 12.7 77 2.2 S 6 9 3 5 - - 1.0
22/06:30pm 16.6 16.1 12.2 75 2.4 S 6 15 3 8 - - 1.0
22/06:00pm 17.2 17.3 11.5 69 3.1 S 2 9 1 5 - - 1.0
22/05:30pm 18.6 17.7 11.4 63 3.9 ESE 7 17 4 9 - - 1.0
22/05:00pm 19.7 18.5 11.5 59 4.5 SE 9 20 5 11 - - 1.0
22/04:30pm 19.8 18.6 11.6 59 4.5 ESE 9 19 5 10 - - 1.0
22/04:00pm 21.1 19.9 11.7 55 5.2 ESE 9 19 5 10 - - 1.0
22/03:30pm 19.9 18.6 11.1 57 4.8 ESE 9 17 5 9 - - 1.0
22/03:00pm 20.0 19.1 11.5 58 4.7 SE 7 13 4 7 - - 1.0
22/02:30pm 20.0 18.5 10.7 55 5.1 ESE 9 15 5 8 - - 1.0
22/02:00pm 20.4 19.2 11.6 57 4.9 E 9 15 5 8 - - 1.0
22/01:30pm 20.7 18.9 10.8 53 5.4 ESE 11 24 6 13 - - 1.0
22/01:00pm 21.3 19.8 11.9 55 5.3 ESE 11 20 6 11 - - 1.0
22/12:30pm 20.9 19.7 11.5 55 5.2 ESE 9 15 5 8 - - 1.0
22/12:00pm 20.3 20.5 14.7 70 3.3 SE 7 15 4 8 - - 1.0
22/11:30am 18.7 18.9 14.6 77 2.4 ESE 7 15 4 8 - - 0.8
22/11:00am 17.5 17.9 13.8 79 2.1 E 4 17 2 9 - - 0.8
22/10:53am 17.2 15.4 12.1 72 2.8 ESE 13 32 7 17 - - 0.8
22/10:30am 22.2 20.7 11.9 52 5.8 ESE 11 24 6 13 - - 0.0
22/10:00am 21.8 20.1 11.2 51 5.9 ESE 11 20 6 11 - - 0.0
22/09:30am 21.3 19.5 10.8 51 5.8 SE 11 22 6 12 - - 0.0
22/09:00am 21.9 20.3 12.7 56 5.2 ESE 13 24 7 13 - - 1.0
22/08:30am 20.2 18.0 10.9 55 5.1 ESE 13 22 7 12 - - 1.0
22/08:00am 17.5 17.4 13.8 79 2.1 SSW 7 11 4 6 - - 1.0
22/07:30am 17.0 17.3 13.3 79 2.1 SW 4 9 2 5 - - 1.0
22/07:00am 15.5 15.6 13.9 90 0.9 SSW 6 9 3 5 - - 1.0
22/06:30am 13.8 13.6 12.9 94 0.5 SW 6 7 3 4 - - 1.0
22/06:00am 13.2 12.7 12.1 93 0.6 SW 6 7 3 4 - - 1.0
22/05:30am 13.2 12.7 12.1 93 0.6 SW 6 7 3 4 - - 1.0
22/05:00am 13.0 12.8 11.9 93 0.6 SW 4 6 2 3 - - 0.8
22/04:30am 13.2 12.7 12.1 93 0.6 SW 6 7 3 4 - - 0.8
22/04:00am 13.5 13.5 12.4 93 0.6 SSW 4 7 2 4 - - 0.6
22/03:30am 13.3 13.2 12.0 92 0.7 SW 4 6 2 3 - - 0.6
22/03:00am 13.5 13.4 12.2 92 0.7 SW 4 6 2 3 - - 0.6
22/02:30am 13.8 13.4 12.5 92 0.7 SW 6 7 3 4 - - 0.6
22/02:00am 13.9 14.7 12.6 92 0.7 CALM 0 0 0 0 - - 0.6
22/01:30am 14.3 15.2 13.0 92 0.7 CALM 0 4 0 2 - - 0.6
22/01:00am 14.3 14.1 13.0 92 0.7 SSW 6 9 3 5 - - 0.6
22/12:30am 14.0 13.7 12.7 92 0.7 SW 6 9 3 5 - - 0.6
22/12:00am 14.1 13.7 12.5 90 0.9 SSW 6 7 3 4 - - 0.6
 
Date/Time
EST
Tmp

°C
App
Tmp
°C
Dew
Point
°C
Rel
Hum
%
Delta-T

°C
Wind Press
QNH
hPa
Press
MSL
hPa
Rain
since
9 am
mm
Dir
 
Spd
km/h
Gust
km/h
Spd
kts
Gust
kts
21/11:30pm 14.7 14.4 12.7 88 1.1 SW 6 7 3 4 - - 0.6
21/11:00pm 15.3 15.1 13.1 87 1.2 SSW 6 9 3 5 - - 0.6
21/10:30pm 15.3 15.2 13.3 88 1.1 SSW 6 11 3 6 - - 0.6
21/10:00pm 15.1 15.3 13.1 88 1.1 SSW 4 9 2 5 - - 0.6
21/09:30pm 14.9 14.6 12.8 87 1.2 SSW 6 9 3 5 - - 0.6
21/09:00pm 15.7 15.6 13.2 85 1.4 SSW 6 11 3 6 - - 0.6
21/08:30pm 16.0 15.2 12.9 82 1.7 S 9 19 5 10 - - 0.6
21/08:00pm 14.8 15.4 11.9 83 1.6 CALM 0 0 0 0 - - 0.6
21/07:30pm 15.0 15.6 12.0 82 1.6 CALM 0 0 0 0 - - 0.6
21/07:00pm 15.3 16.0 12.1 81 1.7 CALM 0 0 0 0 - - 0.6
21/06:30pm 15.8 16.5 12.2 79 2.0 CALM 0 7 0 4 - - 0.6
21/06:00pm 16.5 17.2 12.1 75 2.4 CALM 0 6 0 3 - - 0.6
21/05:30pm 17.7 17.9 11.9 69 3.2 E 2 9 1 5 - - 0.6
21/05:00pm 18.8 18.8 12.5 67 3.5 ESE 4 11 2 6 - - 0.6
21/04:30pm 19.3 18.7 12.3 64 3.9 SE 7 19 4 10 - - 0.6
21/04:00pm 18.8 18.1 12.1 65 3.7 E 7 13 4 7 - - 0.6
21/03:30pm 18.8 18.1 12.1 65 3.7 ESE 7 17 4 9 - - 0.6
21/03:00pm 21.1 20.5 13.5 62 4.4 ESE 9 15 5 8 - - 0.6
21/02:30pm 19.7 19.1 12.2 62 4.2 E 7 11 4 6 - - 0.4
21/02:00pm 19.7 19.1 12.2 62 4.2 ENE 7 15 4 8 - - 0.4
21/01:30pm 19.9 19.7 13.6 67 3.6 E 7 17 4 9 - - 0.4
21/01:00pm 20.3 21.2 16.7 80 2.2 ENE 7 15 4 8 - - 0.4
21/12:30pm 18.8 19.3 14.9 78 2.3 ENE 6 11 3 6 - - 0.4
21/12:00pm 17.5 17.6 13.8 79 2.1 S 6 9 3 5 - - 0.0
21/11:30am 19.8 18.9 12.6 63 4.1 ESE 9 13 5 7 - - 0.0
21/11:00am 20.3 18.8 12.0 59 4.6 S 11 20 6 11 - - 0.0
21/10:30am 20.6 19.7 12.6 60 4.5 SSE 9 17 5 9 - - 0.0
21/10:00am 20.0 19.4 12.3 61 4.3 SE 7 13 4 7 - - 0.0
21/09:30am 19.6 18.6 12.4 63 4.0 S 9 17 5 9 - - 0.0
21/09:00am 17.0 16.7 11.5 70 3.0 S 4 13 2 7 - - 10.4
21/08:30am 17.2 15.2 10.3 64 3.7 S 11 20 6 11 - - 10.4
21/08:00am 17.1 16.1 10.9 67 3.3 S 7 17 4 9 - - 10.4
21/07:30am 15.7 15.7 12.3 80 1.9 SSW 4 7 2 4 - - 10.4
21/07:00am 14.2 13.7 12.1 87 1.1 SW 6 7 3 4 - - 10.4
21/06:30am 12.0 11.1 10.7 92 0.7 SW 6 7 3 4 - - 10.4
21/06:00am 11.4 10.3 10.0 91 0.7 SW 6 7 3 4 - - 10.4
21/05:30am 11.6 10.6 10.2 91 0.7 SW 6 7 3 4 - - 10.4
21/05:00am 12.2 11.3 10.6 90 0.8 SW 6 7 3 4 - - 10.2
21/04:30am 12.5 12.0 10.9 90 0.8 SW 4 7 2 4 - - 10.2
21/04:00am 12.8 12.0 11.0 89 0.9 SW 6 7 3 4 - - 10.2
21/03:30am 13.5 13.0 11.9 90 0.9 SW 6 7 3 4 - - 10.2
21/03:00am 14.1 14.2 12.7 91 0.8 SW 4 6 2 3 - - 10.2
21/02:30am 14.3 14.5 12.9 91 0.8 SW 4 7 2 4 - - 10.2
21/02:00am 14.5 14.7 12.9 90 0.9 SW 4 7 2 4 - - 10.2
21/01:30am 14.5 14.3 13.0 91 0.8 WSW 6 7 3 4 - - 10.2
21/01:00am 14.6 14.9 13.3 92 0.7 SW 4 7 2 4 - - 10.2
21/12:30am 14.6 14.5 13.3 92 0.7 SSW 6 7 3 4 - - 10.2
21/12:00am 14.9 15.2 13.4 91 0.8 WSW 4 6 2 3 - - 10.2
 
Date/Time
EST
Tmp

°C
App
Tmp
°C
Dew
Point
°C
Rel
Hum
%
Delta-T

°C
Wind Press
QNH
hPa
Press
MSL
hPa
Rain
since
9 am
mm
Dir
 
Spd
km/h
Gust
km/h
Spd
kts
Gust
kts
20/11:30pm 15.0 16.1 13.5 91 0.8 CALM 0 0 0 0 - - 10.2
20/11:00pm 15.2 16.0 13.6 90 0.9 S 2 7 1 4 - - 10.2
20/10:30pm 14.4 15.3 13.0 91 0.8 CALM 0 0 0 0 - - 10.2
20/10:00pm 14.5 15.4 12.9 90 0.9 CALM 0 6 0 3 - - 10.2
20/09:30pm 15.1 16.2 13.6 91 0.8 CALM 0 0 0 0 - - 10.2
20/09:00pm 15.6 17.0 14.3 92 0.7 CALM 0 0 0 0 - - 10.2
20/08:30pm 15.7 17.0 14.2 91 0.9 CALM 0 0 0 0 - - 10.2

Latest Capital City Observations: Canberra | Sydney | Melbourne | Brisbane | Adelaide | Perth | Hobart | Darwin

Other Formats:

Comma delimited format used in spreadsheet applications
http://www.bom.gov.au/fwo/IDQ60901/IDQ60901.95566.axf

JavaScript Object Notation format (JSON) in row-major order
http://www.bom.gov.au/fwo/IDQ60901/IDQ60901.95566.json